Terminal Aerodrome Forecast
Issued by NWS

Home | Current Version | Previous Version | Text Only | Print | Product List | Glossary On
Versions: 1 2 3 4 5 6 7 8 9 10 11 12 13 14 15 16 17 18 19
000
FTUS46 KLOX 291123
TAFSBA
TAF
KSBA 291123Z 2912/3012 VRB03KT 4SM BR OVC004
     FM291600 VRB03KT 6SM BR BKN007
     FM291800 19007KT P6SM SCT010
     FM292000 26010KT P6SM SKC
     FM300400 VRB03KT P6SM BKN200=

USA.gov is the U.S. government's official web portal to all federal, state and local government web resources and services.